createdAt,value
2016-12-30T00:01:04.816Z,18.71
2016-12-30T00:02:15.549Z,18.66
2016-12-30T00:03:26.282Z,18.68
2016-12-30T00:04:37.024Z,18.73
2016-12-30T00:05:47.747Z,18.68
2016-12-30T00:06:58.090Z,18.68
2016-12-30T00:08:08.832Z,18.71
2016-12-30T00:09:19.168Z,18.58
2016-12-30T00:10:29.892Z,18.66
2016-12-30T00:11:39.824Z,18.7
2016-12-30T00:12:50.157Z,18.7
2016-12-30T00:14:00.915Z,18.7
2016-12-30T00:15:11.635Z,18.71
2016-12-30T00:16:21.565Z,18.7
2016-12-30T00:17:31.898Z,18.68
2016-12-30T00:18:42.304Z,18.74
2016-12-30T00:19:52.637Z,18.64
2016-12-30T00:21:03.357Z,18.67
2016-12-30T00:22:13.679Z,18.71
2016-12-30T00:23:24.029Z,18.68
2016-12-30T00:24:34.358Z,18.7
2016-12-30T00:25:44.676Z,18.66
2016-12-30T00:26:54.620Z,18.64
2016-12-30T00:28:05.373Z,18.63
2016-12-30T00:29:15.315Z,18.7
2016-12-30T00:30:26.099Z,18.74
2016-12-30T00:31:36.829Z,18.64
2016-12-30T00:32:47.550Z,18.63
2016-12-30T00:33:58.275Z,18.64
2016-12-30T00:35:09.023Z,18.61
2016-12-30T00:36:19.753Z,18.63
2016-12-30T00:37:30.498Z,18.63
2016-12-30T00:38:41.241Z,18.58
2016-12-30T00:39:51.997Z,18.57
2016-12-30T00:41:02.745Z,18.57
2016-12-30T00:42:12.281Z,18.7
2016-12-30T00:43:23.014Z,18.7
2016-12-30T00:44:33.347Z,18.7
2016-12-30T00:45:43.687Z,18.6
2016-12-30T00:46:54.419Z,18.58
2016-12-30T00:48:04.748Z,18.58
2016-12-30T00:49:14.688Z,18.67
2016-12-30T00:50:25.423Z,18.58
2016-12-30T00:51:35.753Z,18.6
2016-12-30T00:52:46.491Z,18.64
2016-12-30T00:53:56.419Z,18.57
2016-12-30T00:55:06.364Z,18.63
2016-12-30T00:56:17.087Z,18.57
2016-12-30T00:57:27.410Z,18.58
2016-12-30T00:58:38.140Z,18.58
2016-12-30T00:59:48.857Z,18.6
2016-12-30T01:00:58.399Z,18.55
2016-12-30T01:02:09.141Z,18.57
2016-12-30T01:03:19.080Z,18.64
2016-12-30T01:04:29.803Z,18.57
2016-12-30T01:05:40.156Z,18.61
2016-12-30T01:06:50.495Z,18.61
2016-12-30T01:08:00.438Z,18.6
2016-12-30T01:09:10.886Z,18.6
2016-12-30T01:10:21.615Z,18.58
2016-12-30T01:11:32.338Z,18.55
2016-12-30T01:12:43.065Z,18.6
2016-12-30T01:13:53.794Z,18.58
2016-12-30T01:15:04.534Z,18.58
2016-12-30T01:16:15.256Z,18.53
2016-12-30T01:17:25.599Z,18.61
2016-12-30T01:18:35.538Z,18.58
2016-12-30T01:19:45.888Z,18.58
2016-12-30T01:20:55.821Z,18.58
2016-12-30T01:22:06.546Z,18.58
2016-12-30T01:23:17.429Z,18.61
2016-12-30T01:24:28.168Z,18.55
2016-12-30T01:25:38.885Z,18.61
2016-12-30T01:26:49.215Z,18.58
2016-12-30T01:27:59.941Z,18.57
2016-12-30T01:29:10.661Z,18.53
2016-12-30T01:30:21.372Z,18.53
2016-12-30T01:31:32.092Z,18.55
2016-12-30T01:32:42.834Z,18.53
2016-12-30T01:33:52.760Z,18.57
2016-12-30T01:35:03.103Z,18.53
2016-12-30T01:36:13.430Z,18.53
2016-12-30T01:37:23.759Z,18.55
2016-12-30T01:38:34.479Z,18.53
2016-12-30T01:39:45.212Z,18.57
2016-12-30T01:40:55.538Z,18.6
2016-12-30T01:42:06.258Z,18.57
2016-12-30T01:43:16.977Z,18.57
2016-12-30T01:44:27.321Z,18.57
2016-12-30T01:45:37.650Z,18.46
2016-12-30T01:46:47.570Z,18.58
2016-12-30T01:47:57.893Z,18.53
2016-12-30T01:49:08.235Z,18.57
2016-12-30T01:50:18.565Z,18.48
2016-12-30T01:51:30.037Z,18.51
2016-12-30T01:52:40.766Z,18.57
2016-12-30T01:53:51.096Z,18.49
2016-12-30T01:55:01.826Z,18.53
2016-12-30T01:56:12.159Z,18.51
2016-12-30T01:57:22.910Z,18.6
2016-12-30T01:58:33.627Z,18.53
2016-12-30T01:59:43.563Z,18.57
2016-12-30T02:00:53.496Z,18.58
2016-12-30T02:02:03.842Z,18.48
2016-12-30T02:03:14.558Z,18.57
2016-12-30T02:04:24.878Z,18.52
2016-12-30T02:05:34.820Z,18.55
2016-12-30T02:06:45.538Z,18.51
2016-12-30T02:07:55.867Z,18.49
2016-12-30T02:09:06.197Z,18.55
2016-12-30T02:10:16.926Z,18.49
2016-12-30T02:11:27.249Z,18.55
2016-12-30T02:12:37.973Z,18.52
2016-12-30T02:13:48.693Z,18.43
2016-12-30T02:14:59.035Z,18.46
2016-12-30T02:16:09.367Z,18.52
2016-12-30T02:17:19.694Z,18.52
2016-12-30T02:18:30.414Z,18.48
2016-12-30T02:19:40.741Z,18.46
2016-12-30T02:20:51.467Z,18.45
2016-12-30T02:22:02.192Z,18.46
2016-12-30T02:23:12.923Z,18.52
2016-12-30T02:24:23.255Z,18.51
2016-12-30T02:25:33.588Z,18.49
2016-12-30T02:26:44.308Z,18.51
2016-12-30T02:27:55.034Z,18.52
2016-12-30T02:29:05.751Z,18.51
2016-12-30T02:30:16.487Z,18.52
2016-12-30T02:31:27.216Z,18.57
2016-12-30T02:32:37.942Z,18.51
2016-12-30T02:33:48.656Z,18.42
2016-12-30T02:34:59.376Z,18.49
2016-12-30T02:36:09.306Z,18.48
2016-12-30T02:37:19.236Z,18.52
2016-12-30T02:38:29.954Z,18.48
2016-12-30T02:39:40.284Z,18.55
2016-12-30T02:40:51.033Z,18.51
2016-12-30T02:42:01.757Z,18.49
2016-12-30T02:43:12.476Z,18.48
2016-12-30T02:44:22.796Z,18.46
2016-12-30T02:45:33.520Z,18.43
2016-12-30T02:46:43.890Z,18.46
2016-12-30T02:47:54.214Z,18.51
2016-12-30T02:49:04.976Z,18.43
2016-12-30T02:50:15.699Z,18.45
2016-12-30T02:51:26.038Z,18.48
2016-12-30T02:52:35.612Z,18.48
2016-12-30T02:53:45.933Z,18.51
2016-12-30T02:54:56.663Z,18.46
2016-12-30T02:56:06.997Z,18.48
2016-12-30T02:57:16.924Z,18.43
2016-12-30T02:58:27.657Z,18.48
2016-12-30T02:59:37.977Z,18.45
2016-12-30T03:00:48.293Z,18.45
2016-12-30T03:01:59.023Z,18.45
2016-12-30T03:03:09.366Z,18.43
2016-12-30T03:04:20.079Z,18.46
2016-12-30T03:05:30.796Z,18.46
2016-12-30T03:06:40.348Z,18.43
2016-12-30T03:07:51.062Z,18.49
2016-12-30T03:09:01.824Z,18.43
2016-12-30T03:10:12.146Z,18.41
2016-12-30T03:11:22.488Z,18.42
2016-12-30T03:12:33.202Z,18.52
2016-12-30T03:13:43.919Z,18.53
2016-12-30T03:14:54.232Z,18.46
2016-12-30T03:16:04.953Z,18.42
2016-12-30T03:17:15.675Z,18.41
2016-12-30T03:18:26.402Z,18.48
2016-12-30T03:19:37.122Z,18.48
2016-12-30T03:20:47.858Z,18.49
2016-12-30T03:21:57.779Z,18.52
2016-12-30T03:23:08.095Z,18.48
2016-12-30T03:24:18.815Z,18.45
2016-12-30T03:25:29.142Z,18.45
2016-12-30T03:26:39.471Z,18.43
2016-12-30T03:27:50.213Z,18.51
2016-12-30T03:29:00.935Z,18.42
2016-12-30T03:30:11.272Z,18.43
2016-12-30T03:31:21.602Z,18.42
2016-12-30T03:32:32.332Z,18.45
2016-12-30T03:33:42.652Z,18.46
2016-12-30T03:34:52.975Z,18.43
2016-12-30T03:36:03.692Z,18.42
2016-12-30T03:37:14.415Z,18.46
2016-12-30T03:38:25.135Z,18.41
2016-12-30T03:39:35.886Z,18.45
2016-12-30T03:40:45.813Z,18.45
2016-12-30T03:41:56.526Z,18.49
2016-12-30T03:43:06.456Z,18.41
2016-12-30T03:44:16.382Z,18.48
2016-12-30T03:45:26.706Z,18.42
2016-12-30T03:46:37.032Z,18.49
2016-12-30T03:47:46.958Z,18.42
2016-12-30T03:48:57.302Z,18.37
2016-12-30T03:50:08.053Z,18.46
2016-12-30T03:51:18.773Z,18.46
2016-12-30T03:52:29.496Z,18.43
2016-12-30T03:53:39.812Z,18.45
2016-12-30T03:54:50.142Z,18.46
2016-12-30T03:56:00.856Z,18.45
2016-12-30T03:57:11.925Z,18.39
2016-12-30T03:58:22.299Z,18.42
2016-12-30T03:59:33.045Z,18.39
2016-12-30T04:00:43.768Z,18.46
2016-12-30T04:01:54.485Z,18.43
2016-12-30T04:03:04.800Z,18.48
2016-12-30T04:04:14.737Z,18.42
2016-12-30T04:05:25.064Z,18.39
2016-12-30T04:06:35.375Z,18.33
2016-12-30T04:07:45.700Z,18.46
2016-12-30T04:08:56.021Z,18.37
2016-12-30T04:10:06.734Z,18.43
2016-12-30T04:11:17.445Z,18.45
2016-12-30T04:12:28.171Z,18.41
2016-12-30T04:13:38.914Z,18.36
2016-12-30T04:14:49.234Z,18.43
2016-12-30T04:15:59.948Z,18.43
2016-12-30T04:17:10.661Z,18.46
2016-12-30T04:18:21.384Z,18.36
2016-12-30T04:19:31.705Z,18.45
2016-12-30T04:20:42.450Z,18.43
2016-12-30T04:21:53.187Z,18.49
2016-12-30T04:23:03.913Z,18.49
2016-12-30T04:24:14.357Z,18.43
2016-12-30T04:25:25.083Z,18.34
2016-12-30T04:26:35.413Z,18.45
2016-12-30T04:27:46.136Z,18.46
2016-12-30T04:28:56.863Z,18.49
2016-12-30T04:30:07.589Z,18.42
2016-12-30T04:31:18.344Z,18.41
2016-12-30T04:32:28.672Z,18.39
2016-12-30T04:33:39.398Z,18.36
2016-12-30T04:34:50.133Z,18.42
2016-12-30T04:36:00.462Z,18.37
2016-12-30T04:37:11.180Z,18.33
2016-12-30T04:38:21.541Z,18.33
2016-12-30T04:39:31.868Z,18.36
2016-12-30T04:40:42.207Z,18.36
2016-12-30T04:41:52.539Z,18.31
2016-12-30T04:43:02.463Z,18.34
2016-12-30T04:44:12.399Z,18.43
2016-12-30T04:45:22.328Z,18.36
2016-12-30T04:46:32.950Z,18.43
2016-12-30T04:47:43.666Z,18.34
2016-12-30T04:48:54.386Z,18.36
2016-12-30T04:50:04.709Z,18.36
2016-12-30T04:51:14.661Z,18.33
2016-12-30T04:52:25.369Z,18.39
2016-12-30T04:53:35.292Z,18.39
2016-12-30T04:54:46.002Z,18.36
2016-12-30T04:55:56.722Z,18.31
2016-12-30T04:57:07.442Z,18.48
2016-12-30T04:58:17.760Z,18.28
2016-12-30T04:59:27.689Z,18.41
2016-12-30T05:00:38.453Z,18.36
2016-12-30T05:01:49.170Z,18.41
2016-12-30T05:02:59.922Z,18.3
2016-12-30T05:04:10.646Z,18.37
2016-12-30T05:05:21.369Z,18.39
2016-12-30T05:06:31.695Z,18.41
2016-12-30T05:07:42.406Z,18.36
2016-12-30T05:08:52.723Z,18.31
2016-12-30T05:10:02.649Z,18.39
2016-12-30T05:11:13.371Z,18.41
2016-12-30T05:12:24.079Z,18.36
2016-12-30T05:13:34.409Z,18.41
2016-12-30T05:14:44.732Z,18.36
2016-12-30T05:15:55.462Z,18.31
2016-12-30T05:17:06.205Z,18.31
2016-12-30T05:18:16.925Z,18.36
2016-12-30T05:19:27.647Z,18.36
2016-12-30T05:20:38.358Z,18.27
2016-12-30T05:21:49.101Z,18.34
2016-12-30T05:22:59.821Z,18.39
2016-12-30T05:24:10.140Z,18.45
2016-12-30T05:25:20.867Z,18.45
2016-12-30T05:26:31.580Z,18.37
2016-12-30T05:27:41.905Z,18.39
2016-12-30T05:28:52.624Z,18.37
2016-12-30T05:30:03.337Z,18.39
2016-12-30T05:31:14.054Z,18.43
2016-12-30T05:32:24.387Z,18.37
2016-12-30T05:33:34.713Z,18.39
2016-12-30T05:34:45.436Z,18.37
2016-12-30T05:35:55.360Z,18.3
2016-12-30T05:37:05.292Z,18.34
2016-12-30T05:38:15.606Z,18.41
2016-12-30T05:39:26.329Z,18.31
2016-12-30T05:40:36.678Z,18.36
2016-12-30T05:41:47.017Z,18.37
2016-12-30T05:42:57.347Z,18.37
2016-12-30T05:44:06.892Z,18.36
2016-12-30T05:45:17.619Z,18.43
2016-12-30T05:46:28.336Z,18.39
2016-12-30T05:47:38.265Z,18.34
2016-12-30T05:48:48.595Z,18.36
2016-12-30T05:49:58.915Z,18.34
2016-12-30T05:51:09.641Z,18.42
2016-12-30T05:52:19.964Z,18.36
2016-12-30T05:53:30.285Z,18.37
2016-12-30T05:54:41.012Z,18.39
2016-12-30T05:55:51.731Z,18.34
2016-12-30T05:57:02.905Z,18.33
2016-12-30T05:58:13.225Z,18.37
2016-12-30T05:59:23.181Z,18.37
2016-12-30T06:00:33.523Z,18.41
2016-12-30T06:01:43.459Z,18.39
2016-12-30T06:02:53.001Z,18.39
2016-12-30T06:04:03.724Z,18.48
2016-12-30T06:05:13.661Z,18.36
2016-12-30T06:06:24.407Z,18.34
2016-12-30T06:07:34.735Z,18.36
2016-12-30T06:08:45.065Z,18.34
2016-12-30T06:09:55.788Z,18.39
2016-12-30T06:11:05.721Z,18.33
2016-12-30T06:12:16.047Z,18.39
2016-12-30T06:13:26.370Z,18.42
2016-12-30T06:14:37.101Z,18.36
2016-12-30T06:15:47.827Z,18.37
2016-12-30T06:16:58.566Z,18.48
2016-12-30T06:18:08.496Z,18.34
2016-12-30T06:19:18.829Z,18.48
2016-12-30T06:20:29.158Z,18.36
2016-12-30T06:21:39.088Z,18.45
2016-12-30T06:22:49.405Z,18.46
2016-12-30T06:23:59.725Z,18.41
2016-12-30T06:25:10.044Z,18.34
2016-12-30T06:26:20.775Z,18.42
2016-12-30T06:27:31.489Z,18.42
2016-12-30T06:28:41.415Z,18.37
2016-12-30T06:29:52.160Z,18.42
2016-12-30T06:31:02.509Z,18.43
2016-12-30T06:32:12.846Z,18.42
2016-12-30T06:33:23.181Z,18.48
2016-12-30T06:34:33.120Z,18.39
2016-12-30T06:35:43.447Z,18.45
2016-12-30T06:36:54.161Z,18.39
2016-12-30T06:38:04.512Z,18.34
2016-12-30T06:39:14.478Z,18.34
2016-12-30T06:40:24.842Z,18.45
2016-12-30T06:41:34.781Z,18.37
2016-12-30T06:42:45.658Z,18.41
2016-12-30T06:43:55.985Z,18.39
2016-12-30T06:45:05.523Z,18.34
2016-12-30T06:46:15.856Z,18.36
2016-12-30T06:47:26.599Z,18.34
2016-12-30T06:48:36.529Z,18.41
2016-12-30T06:49:46.848Z,18.34
2016-12-30T06:50:57.171Z,18.39
2016-12-30T06:52:07.508Z,18.39
2016-12-30T06:53:17.437Z,18.36
2016-12-30T06:54:27.777Z,18.43
2016-12-30T06:55:38.098Z,18.36
2016-12-30T06:56:48.432Z,18.49
2016-12-30T06:57:59.172Z,18.41
2016-12-30T06:59:09.501Z,18.46
2016-12-30T07:00:19.425Z,18.51
2016-12-30T07:01:29.786Z,18.43
2016-12-30T07:02:39.719Z,18.42
2016-12-30T07:03:49.665Z,18.51
2016-12-30T07:05:00.394Z,18.48
2016-12-30T07:06:10.717Z,18.48
2016-12-30T07:07:21.435Z,18.51
2016-12-30T07:08:31.761Z,18.51
2016-12-30T07:09:42.087Z,18.51
2016-12-30T07:10:52.829Z,18.46
2016-12-30T07:12:03.159Z,18.57
2016-12-30T07:13:13.482Z,18.48
2016-12-30T07:14:23.812Z,18.46
2016-12-30T07:15:34.535Z,18.49
2016-12-30T07:16:45.255Z,18.53
2016-12-30T07:17:55.185Z,18.55
2016-12-30T07:19:05.924Z,18.53
2016-12-30T07:20:16.644Z,18.52
2016-12-30T07:21:27.376Z,18.49
2016-12-30T07:22:37.306Z,18.58
2016-12-30T07:23:48.027Z,18.6
2016-12-30T07:24:58.378Z,18.51
2016-12-30T07:26:09.207Z,18.6
2016-12-30T07:27:19.594Z,18.51
2016-12-30T07:28:29.143Z,18.53
2016-12-30T07:29:39.476Z,18.45
2016-12-30T07:30:50.186Z,18.43
2016-12-30T07:32:00.129Z,18.48
2016-12-30T07:33:10.856Z,18.48
2016-12-30T07:34:21.185Z,18.58
2016-12-30T07:35:31.901Z,18.52
2016-12-30T07:36:42.625Z,18.48
2016-12-30T07:37:53.346Z,18.51
2016-12-30T07:39:04.082Z,18.53
2016-12-30T07:40:14.448Z,18.45
2016-12-30T07:41:25.188Z,18.55
2016-12-30T07:42:35.533Z,18.6
2016-12-30T07:43:45.467Z,18.63
2016-12-30T07:44:55.396Z,18.58
2016-12-30T07:46:06.132Z,18.6
2016-12-30T07:47:16.852Z,18.6
2016-12-30T07:48:27.591Z,18.58
2016-12-30T07:49:37.937Z,18.55
2016-12-30T07:50:47.865Z,18.58
2016-12-30T07:51:58.583Z,18.6
2016-12-30T07:53:09.310Z,18.61
2016-12-30T07:54:20.065Z,18.63
2016-12-30T07:55:30.778Z,18.58
2016-12-30T07:56:41.157Z,18.58
2016-12-30T07:57:51.479Z,18.55
2016-12-30T07:59:01.024Z,18.58
2016-12-30T08:00:11.742Z,18.63
2016-12-30T08:01:22.478Z,18.61
2016-12-30T08:02:33.220Z,18.66
2016-12-30T08:03:43.546Z,18.61
2016-12-30T08:04:53.889Z,18.58
2016-12-30T08:06:04.224Z,18.66
2016-12-30T08:07:14.964Z,18.71
2016-12-30T08:08:24.904Z,18.64
2016-12-30T08:09:35.243Z,18.64
2016-12-30T08:10:45.968Z,18.7
2016-12-30T08:11:56.740Z,18.71
2016-12-30T08:13:07.472Z,18.67
2016-12-30T08:14:17.808Z,18.68
2016-12-30T08:15:28.532Z,18.7
2016-12-30T08:16:38.874Z,18.66
2016-12-30T08:17:49.597Z,18.71
2016-12-30T08:19:00.343Z,18.67
2016-12-30T08:20:11.088Z,18.64
2016-12-30T08:21:21.802Z,18.73
2016-12-30T08:22:32.141Z,18.73
2016-12-30T08:23:42.858Z,18.73
2016-12-30T08:24:53.579Z,18.68
2016-12-30T08:26:04.304Z,18.66
2016-12-30T08:27:15.035Z,18.73
2016-12-30T08:28:25.412Z,18.73
2016-12-30T08:29:35.764Z,18.76
2016-12-30T08:30:46.544Z,18.71
2016-12-30T08:31:56.131Z,18.74
2016-12-30T08:33:06.459Z,18.73
2016-12-30T08:34:17.187Z,18.74
2016-12-30T08:35:27.518Z,18.76
2016-12-30T08:36:37.469Z,18.73
2016-12-30T08:37:48.205Z,18.71
2016-12-30T08:38:58.542Z,18.71
2016-12-30T08:40:09.273Z,18.78
2016-12-30T08:41:19.994Z,18.74
2016-12-30T08:42:30.724Z,18.73
2016-12-30T08:43:41.460Z,18.79
2016-12-30T08:44:52.222Z,18.73
2016-12-30T08:46:02.545Z,18.71
2016-12-30T08:47:13.284Z,18.78
2016-12-30T08:48:24.007Z,18.81
2016-12-30T08:49:34.394Z,18.86
2016-12-30T08:50:44.720Z,18.86
2016-12-30T08:51:55.443Z,18.73
2016-12-30T08:53:06.186Z,18.83
2016-12-30T08:54:16.912Z,18.88
2016-12-30T08:55:27.244Z,18.86
2016-12-30T08:56:37.968Z,18.89
2016-12-30T08:57:48.695Z,18.86
2016-12-30T08:58:59.421Z,18.81
2016-12-30T09:00:10.147Z,18.76
2016-12-30T09:01:20.506Z,18.88
2016-12-30T09:02:31.222Z,18.82
2016-12-30T09:03:41.561Z,18.88
2016-12-30T09:04:51.881Z,18.82
2016-12-30T09:06:02.608Z,18.85
2016-12-30T09:07:13.334Z,18.89
2016-12-30T09:08:23.673Z,18.89
2016-12-30T09:09:34.406Z,18.88
2016-12-30T09:10:44.723Z,18.83
2016-12-30T09:11:54.659Z,18.88
2016-12-30T09:13:04.988Z,18.92
2016-12-30T09:14:15.324Z,18.92
2016-12-30T09:15:26.057Z,18.86
2016-12-30T09:16:36.780Z,18.97
2016-12-30T09:17:47.113Z,18.94
2016-12-30T09:18:57.836Z,18.94
2016-12-30T09:20:08.169Z,18.91
2016-12-30T09:21:18.902Z,18.86
2016-12-30T09:22:29.234Z,18.92
2016-12-30T09:23:39.555Z,18.94
2016-12-30T09:24:50.278Z,18.89
2016-12-30T09:26:00.617Z,18.92
2016-12-30T09:27:10.950Z,18.91
2016-12-30T09:28:21.312Z,18.88
2016-12-30T09:29:31.244Z,18.91
2016-12-30T09:30:41.568Z,18.92
2016-12-30T09:31:52.341Z,18.94
2016-12-30T09:33:03.082Z,18.94
2016-12-30T09:34:13.411Z,18.92
2016-12-30T09:35:23.751Z,18.94
2016-12-30T09:36:34.480Z,18.96
2016-12-30T09:37:45.212Z,18.94
2016-12-30T09:38:55.545Z,18.94
2016-12-30T09:40:05.929Z,18.92
2016-12-30T09:41:16.668Z,19.05
2016-12-30T09:42:27.430Z,19
2016-12-30T09:43:38.166Z,18.97
2016-12-30T09:44:48.502Z,18.97
2016-12-30T09:45:58.841Z,18.96
2016-12-30T09:47:09.587Z,18.98
2016-12-30T09:48:20.301Z,18.98
2016-12-30T09:49:30.650Z,18.98
2016-12-30T09:50:41.136Z,19
2016-12-30T09:51:51.855Z,18.98
2016-12-30T09:53:02.592Z,19
2016-12-30T09:54:12.938Z,18.98
2016-12-30T09:55:23.296Z,18.96
2016-12-30T09:56:34.066Z,19.07
2016-12-30T09:57:44.806Z,19.04
2016-12-30T09:58:55.539Z,19.05
2016-12-30T10:00:06.272Z,19.07
2016-12-30T10:01:17.008Z,19.07
2016-12-30T10:02:27.734Z,19.05
2016-12-30T10:03:37.673Z,19.09
2016-12-30T10:04:48.007Z,19.07
2016-12-30T10:05:58.342Z,19.07
2016-12-30T10:07:08.681Z,19.07
2016-12-30T10:08:19.443Z,19.08
2016-12-30T10:09:30.210Z,19.11
2016-12-30T10:10:40.147Z,19.07
2016-12-30T10:11:50.874Z,19.08
2016-12-30T10:13:01.610Z,19.07
2016-12-30T10:14:12.358Z,19.05
2016-12-30T10:15:22.701Z,19.08
2016-12-30T10:16:33.046Z,19.09
2016-12-30T10:17:43.763Z,19.01
2016-12-30T10:18:54.515Z,18.96
2016-12-30T10:20:05.248Z,18.89
2016-12-30T10:21:15.983Z,18.92
2016-12-30T10:22:26.722Z,18.82
2016-12-30T10:23:36.652Z,18.85
2016-12-30T10:24:46.188Z,18.83
2016-12-30T10:25:56.927Z,18.86
2016-12-30T10:27:07.267Z,18.86
2016-12-30T10:28:18.000Z,18.89
2016-12-30T10:29:28.720Z,18.79
2016-12-30T10:30:39.068Z,18.76
2016-12-30T10:31:49.405Z,18.81
2016-12-30T10:32:59.757Z,18.71
2016-12-30T10:34:10.512Z,18.73
2016-12-30T10:35:20.835Z,18.73
2016-12-30T10:36:31.164Z,18.73
2016-12-30T10:37:41.923Z,18.74
2016-12-30T10:38:52.652Z,18.74
2016-12-30T10:40:02.985Z,18.76
2016-12-30T10:41:13.317Z,18.74
2016-12-30T10:42:23.264Z,18.91
2016-12-30T10:43:34.009Z,18.73
2016-12-30T10:44:44.377Z,18.78
2016-12-30T10:45:54.736Z,18.76
2016-12-30T10:47:05.116Z,18.76
2016-12-30T10:48:15.445Z,18.76
2016-12-30T10:49:25.788Z,18.85
2016-12-30T10:50:35.315Z,18.81
2016-12-30T10:51:45.254Z,18.79
2016-12-30T10:52:55.978Z,18.85
2016-12-30T10:54:06.739Z,18.76
2016-12-30T10:55:16.672Z,18.83
2016-12-30T10:56:27.396Z,18.81
2016-12-30T10:57:37.735Z,18.74
2016-12-30T10:58:48.121Z,18.78
2016-12-30T10:59:58.455Z,18.78
2016-12-30T11:01:09.184Z,18.78
2016-12-30T11:02:20.051Z,18.81
2016-12-30T11:03:30.380Z,18.73
2016-12-30T11:04:39.929Z,18.81
2016-12-30T11:05:50.249Z,18.79
2016-12-30T11:07:00.182Z,18.73
2016-12-30T11:08:10.919Z,18.85
2016-12-30T11:09:21.654Z,18.81
2016-12-30T11:10:32.448Z,18.76
2016-12-30T11:11:43.172Z,18.79
2016-12-30T11:12:53.501Z,18.92
2016-12-30T11:14:04.246Z,18.73
2016-12-30T11:15:14.201Z,18.79
2016-12-30T11:16:24.540Z,18.81
2016-12-30T11:17:35.273Z,18.86
2016-12-30T11:18:46.004Z,18.78
2016-12-30T11:19:56.351Z,18.86
2016-12-30T11:21:07.097Z,18.85
2016-12-30T11:22:16.667Z,18.81
2016-12-30T11:23:26.197Z,18.76
2016-12-30T11:24:36.920Z,18.83
2016-12-30T11:25:47.266Z,18.83
2016-12-30T11:26:57.592Z,18.85
2016-12-30T11:28:07.653Z,18.89
2016-12-30T11:29:18.379Z,18.83
2016-12-30T11:30:28.715Z,18.82
2016-12-30T11:31:39.445Z,18.86
2016-12-30T11:32:49.784Z,18.83
2016-12-30T11:34:00.126Z,18.92
2016-12-30T11:35:10.084Z,18.83
2016-12-30T11:36:20.811Z,18.83
2016-12-30T11:37:31.546Z,18.89
2016-12-30T11:38:42.276Z,18.88
2016-12-30T11:39:53.019Z,18.83
2016-12-30T11:41:03.349Z,18.91
2016-12-30T11:42:13.681Z,18.81
2016-12-30T11:43:24.045Z,18.88
2016-12-30T11:44:33.977Z,18.83
2016-12-30T11:45:44.320Z,18.96
2016-12-30T11:46:53.860Z,18.91
2016-12-30T11:48:04.621Z,18.89
2016-12-30T11:49:15.351Z,18.83
2016-12-30T11:50:25.677Z,18.89
2016-12-30T11:51:36.444Z,18.86
2016-12-30T11:52:46.771Z,18.83
2016-12-30T11:53:57.501Z,18.88
2016-12-30T11:55:07.827Z,18.88
2016-12-30T11:56:18.550Z,18.83
2016-12-30T11:57:28.882Z,18.78
2016-12-30T11:58:39.244Z,18.88
2016-12-30T11:59:49.954Z,18.88
2016-12-30T12:01:00.678Z,18.76
2016-12-30T12:02:11.157Z,18.89
2016-12-30T12:03:21.512Z,18.86
2016-12-30T12:04:32.242Z,18.91
2016-12-30T12:05:42.173Z,18.85
2016-12-30T12:06:52.911Z,18.91
2016-12-30T12:08:03.241Z,18.88
2016-12-30T12:09:13.957Z,18.91
2016-12-30T12:10:24.683Z,18.82
2016-12-30T12:11:34.649Z,18.86
2016-12-30T12:12:44.590Z,18.89
2016-12-30T12:13:54.924Z,18.81
2016-12-30T12:15:05.262Z,18.89
2016-12-30T12:16:15.595Z,18.92
2016-12-30T12:17:25.541Z,18.88
2016-12-30T12:18:36.261Z,18.85
2016-12-30T12:19:47.003Z,18.85
2016-12-30T12:20:57.733Z,18.92
2016-12-30T12:22:08.469Z,18.89
2016-12-30T12:23:19.201Z,18.86
2016-12-30T12:24:29.534Z,18.85
2016-12-30T12:25:39.867Z,18.91
2016-12-30T12:26:50.635Z,18.85
2016-12-30T12:28:00.959Z,18.88
2016-12-30T12:29:11.713Z,18.88
2016-12-30T12:30:22.473Z,18.89
2016-12-30T12:31:33.218Z,18.89
2016-12-30T12:32:43.621Z,18.86
2016-12-30T12:33:54.341Z,18.86
2016-12-30T12:35:05.090Z,18.82
2016-12-30T12:36:15.441Z,18.89
2016-12-30T12:37:25.771Z,18.85
2016-12-30T12:38:36.107Z,18.81
2016-12-30T12:39:46.443Z,18.85
2016-12-30T12:40:56.791Z,18.88
2016-12-30T12:42:06.773Z,18.86
2016-12-30T12:43:17.509Z,18.88
2016-12-30T12:44:27.457Z,18.83
2016-12-30T12:45:38.207Z,18.91
2016-12-30T12:46:48.151Z,18.82
2016-12-30T12:47:58.891Z,18.89
2016-12-30T12:49:09.637Z,18.81
2016-12-30T12:50:20.385Z,18.89
2016-12-30T12:51:31.111Z,18.83
2016-12-30T12:52:41.864Z,18.89
2016-12-30T12:53:52.603Z,18.81
2016-12-30T12:55:03.351Z,18.89
2016-12-30T12:56:14.091Z,18.78
2016-12-30T12:57:24.814Z,18.89
2016-12-30T12:58:35.167Z,18.83
2016-12-30T12:59:45.505Z,18.76
2016-12-30T13:00:55.857Z,18.86
2016-12-30T13:02:06.190Z,18.89
2016-12-30T13:03:16.925Z,18.85
2016-12-30T13:04:27.678Z,18.83
2016-12-30T13:05:38.028Z,18.83
2016-12-30T13:06:48.363Z,18.85
2016-12-30T13:07:59.102Z,18.89
2016-12-30T13:09:09.438Z,18.85
2016-12-30T13:10:19.761Z,18.85
2016-12-30T13:11:30.494Z,18.86
2016-12-30T13:12:40.049Z,18.83
2016-12-30T13:13:50.407Z,18.83
2016-12-30T13:15:01.133Z,18.91
2016-12-30T13:16:11.883Z,18.85
2016-12-30T13:17:22.222Z,18.88
2016-12-30T13:18:32.554Z,18.91
2016-12-30T13:19:42.925Z,18.85
2016-12-30T13:20:53.256Z,18.91
2016-12-30T13:22:03.850Z,18.92
2016-12-30T13:23:14.224Z,18.88
2016-12-30T13:24:24.564Z,18.89
2016-12-30T13:25:34.509Z,18.91
2016-12-30T13:26:45.268Z,18.86
2016-12-30T13:27:55.220Z,18.82
2016-12-30T13:29:05.953Z,18.81
2016-12-30T13:30:16.695Z,18.89
2016-12-30T13:31:27.044Z,18.85
2016-12-30T13:32:37.379Z,18.85
2016-12-30T13:33:47.712Z,18.85
2016-12-30T13:34:58.042Z,18.88
2016-12-30T13:36:08.777Z,18.85
2016-12-30T13:37:19.508Z,18.85
2016-12-30T13:38:30.255Z,18.83
2016-12-30T13:39:40.991Z,18.85
2016-12-30T13:40:51.721Z,18.82
2016-12-30T13:42:02.054Z,18.83
2016-12-30T13:43:12.794Z,18.83
2016-12-30T13:44:22.754Z,18.89
2016-12-30T13:45:33.487Z,18.89
2016-12-30T13:46:44.215Z,18.88
2016-12-30T13:47:53.749Z,18.83
2016-12-30T13:49:04.482Z,18.89
2016-12-30T13:50:15.219Z,18.85
2016-12-30T13:51:25.550Z,18.88
2016-12-30T13:52:35.883Z,18.82
2016-12-30T13:53:46.223Z,18.89
2016-12-30T13:54:56.959Z,18.86
2016-12-30T13:56:07.705Z,18.85
2016-12-30T13:57:18.064Z,18.86
2016-12-30T13:58:28.806Z,18.88
2016-12-30T13:59:39.535Z,18.85
2016-12-30T14:00:50.287Z,18.83
2016-12-30T14:02:00.655Z,18.88
2016-12-30T14:03:11.402Z,18.83
2016-12-30T14:04:21.750Z,18.85
2016-12-30T14:05:32.120Z,18.86
2016-12-30T14:06:42.537Z,18.85
2016-12-30T14:07:52.489Z,18.88
2016-12-30T14:09:02.841Z,18.91
2016-12-30T14:10:12.421Z,18.86
2016-12-30T14:11:22.744Z,18.89
2016-12-30T14:12:33.465Z,18.85
2016-12-30T14:13:44.198Z,18.83
2016-12-30T14:14:54.930Z,18.83
2016-12-30T14:16:05.683Z,18.88
2016-12-30T14:17:16.031Z,18.91
2016-12-30T14:18:25.957Z,18.85
2016-12-30T14:19:36.297Z,18.85
2016-12-30T14:20:46.659Z,18.86
2016-12-30T14:21:57.378Z,18.82
2016-12-30T14:23:07.318Z,18.85
2016-12-30T14:24:17.724Z,18.86
2016-12-30T14:25:28.442Z,18.86
2016-12-30T14:26:38.399Z,18.83
2016-12-30T14:27:48.767Z,18.88
2016-12-30T14:28:59.507Z,18.94
2016-12-30T14:30:10.243Z,18.91
2016-12-30T14:31:20.985Z,18.85
2016-12-30T14:32:31.321Z,18.85
2016-12-30T14:33:42.063Z,18.85
2016-12-30T14:34:52.812Z,18.85
2016-12-30T14:36:03.151Z,18.82
2016-12-30T14:37:13.488Z,18.89
2016-12-30T14:38:23.808Z,18.92
2016-12-30T14:39:34.709Z,18.83
2016-12-30T14:40:45.041Z,18.89
2016-12-30T14:41:55.413Z,18.85
2016-12-30T14:43:06.159Z,18.89
2016-12-30T14:44:16.493Z,18.89
2016-12-30T14:45:27.222Z,18.88
2016-12-30T14:46:37.571Z,18.81
2016-12-30T14:47:48.300Z,18.81
2016-12-30T14:48:59.091Z,18.88
2016-12-30T14:50:09.818Z,18.88
2016-12-30T14:51:20.227Z,18.83
2016-12-30T14:52:30.182Z,18.81
2016-12-30T14:53:39.734Z,18.76
2016-12-30T14:54:50.140Z,18.86
2016-12-30T14:56:00.502Z,18.88
2016-12-30T14:57:11.260Z,18.86
2016-12-30T14:58:22.008Z,18.79
2016-12-30T14:59:32.848Z,18.74
2016-12-30T15:00:43.610Z,18.86
2016-12-30T15:01:54.163Z,18.89
2016-12-30T15:03:04.614Z,18.85
2016-12-30T15:04:14.947Z,18.74
2016-12-30T15:05:24.903Z,18.91
2016-12-30T15:06:35.284Z,18.86
2016-12-30T15:07:46.045Z,18.78
2016-12-30T15:08:56.000Z,18.86